createdAt,value
2023-02-07T00:01:07.998Z,1.62
2023-02-07T00:03:34.403Z,1.50
2023-02-07T00:06:09.285Z,1.59
2023-02-07T00:08:36.601Z,1.59
2023-02-07T00:11:16.316Z,1.64
2023-02-07T00:13:44.565Z,1.57
2023-02-07T00:16:11.310Z,1.67
2023-02-07T00:18:37.879Z,1.61
2023-02-07T00:21:06.919Z,1.66
2023-02-07T00:23:34.357Z,1.59
2023-02-07T00:26:02.135Z,1.65
2023-02-07T00:28:28.802Z,1.69
2023-02-07T00:31:09.035Z,1.55
2023-02-07T00:33:37.081Z,1.56
2023-02-07T00:36:05.624Z,1.56
2023-02-07T00:38:32.179Z,1.48
2023-02-07T00:40:58.707Z,1.52
2023-02-07T00:43:30.000Z,1.43
2023-02-07T00:46:01.540Z,1.46
2023-02-07T00:48:29.434Z,1.50
2023-02-07T00:50:56.299Z,1.43
2023-02-07T00:53:23.002Z,1.43
2023-02-07T00:55:49.429Z,1.36
2023-02-07T00:58:15.866Z,1.41
2023-02-07T01:00:42.326Z,1.41
2023-02-07T01:03:08.802Z,1.50
2023-02-07T01:05:35.923Z,1.55
2023-02-07T01:08:02.682Z,1.57
2023-02-07T01:10:29.359Z,1.55
2023-02-07T01:12:55.743Z,1.56
2023-02-07T01:15:22.227Z,1.57
2023-02-07T01:17:48.871Z,1.63
2023-02-07T01:20:15.633Z,1.66
2023-02-07T01:22:42.184Z,1.60
2023-02-07T01:25:09.261Z,1.61
2023-02-07T01:27:36.397Z,1.57
2023-02-07T01:30:03.467Z,1.58
2023-02-07T01:32:32.225Z,1.66
2023-02-07T01:34:58.764Z,1.62
2023-02-07T01:37:25.225Z,1.66
2023-02-07T01:39:51.654Z,1.76
2023-02-07T01:42:18.661Z,1.77
2023-02-07T01:44:45.014Z,1.74
2023-02-07T01:47:19.982Z,1.80
2023-02-07T01:49:46.907Z,1.74
2023-02-07T01:52:19.823Z,1.75
2023-02-07T01:54:50.791Z,1.79
2023-02-07T01:57:19.771Z,1.74
2023-02-07T01:59:46.414Z,1.77
2023-02-07T02:02:16.074Z,1.79
2023-02-07T02:04:42.549Z,1.75
2023-02-07T02:07:10.329Z,1.75
2023-02-07T02:09:38.124Z,1.80
2023-02-07T02:12:10.607Z,1.74
2023-02-07T02:14:44.183Z,1.82
2023-02-07T02:17:19.495Z,1.80
2023-02-07T02:20:23.792Z,1.72
2023-02-07T02:23:03.344Z,1.69
2023-02-07T02:25:51.451Z,1.69
2023-02-07T02:28:56.514Z,1.65
2023-02-07T02:31:22.888Z,1.57
2023-02-07T02:34:05.914Z,1.49
2023-02-07T02:36:44.407Z,1.48
2023-02-07T02:39:17.826Z,1.48
2023-02-07T02:41:51.070Z,1.42
2023-02-07T02:44:25.888Z,1.46
2023-02-07T02:46:53.166Z,1.47
2023-02-07T02:49:20.429Z,1.35
2023-02-07T02:51:50.970Z,1.35
2023-02-07T02:54:32.297Z,1.35
2023-02-07T02:57:02.777Z,1.35
2023-02-07T02:59:42.036Z,1.29
2023-02-07T03:02:26.650Z,1.33
2023-02-07T03:04:58.994Z,1.20
2023-02-07T03:07:52.694Z,1.23
2023-02-07T03:10:32.089Z,1.22
2023-02-07T03:13:41.758Z,1.20
2023-02-07T03:16:13.722Z,1.26
2023-02-07T03:18:43.037Z,1.14
2023-02-07T03:21:17.070Z,1.16
2023-02-07T03:23:45.009Z,1.16
2023-02-07T03:26:11.564Z,1.16
2023-02-07T03:28:39.249Z,1.11
2023-02-07T03:31:07.105Z,1.15
2023-02-07T03:33:34.021Z,1.10
2023-02-07T03:36:11.992Z,1.05
2023-02-07T03:38:38.812Z,1.08
2023-02-07T03:41:11.205Z,0.96
2023-02-07T03:43:38.262Z,0.93
2023-02-07T03:46:04.764Z,0.95
2023-02-07T03:48:31.181Z,0.92
2023-02-07T03:50:57.584Z,0.91
2023-02-07T03:53:23.970Z,0.90
2023-02-07T03:55:51.454Z,0.94
2023-02-07T03:58:17.866Z,0.89
2023-02-07T04:00:44.527Z,0.91
2023-02-07T04:03:10.982Z,0.91
2023-02-07T04:05:37.744Z,0.88
2023-02-07T04:08:04.409Z,0.96
2023-02-07T04:10:30.786Z,0.91
2023-02-07T04:12:57.181Z,0.91
2023-02-07T04:15:24.146Z,0.95
2023-02-07T04:17:50.945Z,0.80
2023-02-07T04:20:17.654Z,0.84
2023-02-07T04:22:44.034Z,0.87
2023-02-07T04:25:10.491Z,0.80
2023-02-07T04:27:36.958Z,0.80
2023-02-07T04:30:04.200Z,0.79
2023-02-07T04:32:30.610Z,0.74
2023-02-07T04:34:57.087Z,0.72
2023-02-07T04:37:23.598Z,0.72
2023-02-07T04:39:49.979Z,0.74
2023-02-07T04:42:16.638Z,0.60
2023-02-07T04:44:43.052Z,0.66
2023-02-07T04:47:09.439Z,0.52
2023-02-07T04:49:35.878Z,0.57
2023-02-07T04:52:02.355Z,0.59
2023-02-07T04:54:28.789Z,0.52
2023-02-07T04:56:55.219Z,0.48
2023-02-07T04:59:21.629Z,0.50
2023-02-07T05:01:48.092Z,0.48
2023-02-07T05:04:14.681Z,0.59
2023-02-07T05:06:41.291Z,0.42
2023-02-07T05:09:07.708Z,0.45
2023-02-07T05:11:34.428Z,0.52
2023-02-07T05:14:00.906Z,0.49
2023-02-07T05:16:27.297Z,0.52
2023-02-07T05:18:53.729Z,0.48
2023-02-07T05:21:20.160Z,0.52
2023-02-07T05:23:46.585Z,0.58
2023-02-07T05:26:13.100Z,0.42
2023-02-07T05:28:39.568Z,0.35
2023-02-07T05:31:06.068Z,0.35
2023-02-07T05:33:32.554Z,0.46
2023-02-07T05:36:00.568Z,0.45
2023-02-07T05:38:27.001Z,0.40
2023-02-07T05:40:53.509Z,0.49
2023-02-07T05:43:20.027Z,0.35
2023-02-07T05:45:46.539Z,0.38
2023-02-07T05:48:13.716Z,0.32
2023-02-07T05:50:40.279Z,0.29
2023-02-07T05:53:08.245Z,0.19
2023-02-07T05:55:34.828Z,0.22
2023-02-07T05:58:01.262Z,0.15
2023-02-07T06:00:28.021Z,0.10
2023-02-07T06:02:54.558Z,0.12
2023-02-07T06:05:21.460Z,0.06
2023-02-07T06:07:47.938Z,0.06
2023-02-07T06:10:15.131Z,0.12
2023-02-07T06:12:41.635Z,0.02
2023-02-07T06:15:08.638Z,0.07
2023-02-07T06:17:35.355Z,-0.04
2023-02-07T06:20:01.776Z,0.04
2023-02-07T06:22:28.380Z,-0.13
2023-02-07T06:24:54.790Z,-0.02
2023-02-07T06:27:21.272Z,-0.09
2023-02-07T06:29:47.643Z,-0.05
2023-02-07T06:32:14.169Z,-0.04
2023-02-07T06:34:41.100Z,-0.15
2023-02-07T06:37:07.598Z,-0.19
2023-02-07T06:39:34.008Z,-0.13
2023-02-07T06:42:00.411Z,-0.24
2023-02-07T06:44:26.817Z,-0.24
2023-02-07T06:46:53.268Z,-0.26
2023-02-07T06:49:19.661Z,-0.25
2023-02-07T06:51:46.084Z,-0.24
2023-02-07T06:54:12.811Z,-0.32
2023-02-07T06:56:39.256Z,-0.30
2023-02-07T06:59:05.724Z,-0.34
2023-02-07T07:01:32.234Z,-0.37
2023-02-07T07:03:59.426Z,-0.28
2023-02-07T07:06:26.281Z,-0.35
2023-02-07T07:08:52.797Z,-0.33
2023-02-07T07:11:19.735Z,-0.30
2023-02-07T07:13:46.968Z,-0.37
2023-02-07T07:16:13.654Z,-0.30
2023-02-07T07:18:40.232Z,-0.32
2023-02-07T07:21:07.146Z,-0.34
2023-02-07T07:23:33.768Z,-0.31
2023-02-07T07:26:00.376Z,-0.38
2023-02-07T07:28:26.829Z,-0.37
2023-02-07T07:30:53.509Z,-0.36
2023-02-07T07:33:19.949Z,-0.29
2023-02-07T07:35:46.358Z,-0.26
2023-02-07T07:38:12.933Z,-0.23
2023-02-07T07:40:39.578Z,-0.26
2023-02-07T07:43:06.386Z,-0.25
2023-02-07T07:45:32.871Z,-0.25
2023-02-07T07:47:59.337Z,-0.24
2023-02-07T07:50:25.814Z,-0.23
2023-02-07T07:52:52.257Z,-0.16
2023-02-07T07:55:18.884Z,-0.20
2023-02-07T07:57:45.301Z,-0.21
2023-02-07T08:00:12.716Z,-0.16
2023-02-07T08:02:39.143Z,-0.18
2023-02-07T08:05:05.955Z,-0.12
2023-02-07T08:07:32.429Z,-0.03
2023-02-07T08:09:58.914Z,-0.07
2023-02-07T08:12:25.390Z,-0.06
2023-02-07T08:14:51.887Z,-0.06
2023-02-07T08:17:18.439Z,-0.01
2023-02-07T08:19:44.891Z,0.02
2023-02-07T08:22:11.370Z,0.05
2023-02-07T08:24:37.876Z,0.03
2023-02-07T08:27:04.586Z,0.08
2023-02-07T08:29:31.073Z,0.15
2023-02-07T08:31:57.554Z,0.16
2023-02-07T08:34:26.292Z,0.19
2023-02-07T08:36:53.155Z,0.18
2023-02-07T08:39:19.838Z,0.29
2023-02-07T08:41:46.357Z,0.35
2023-02-07T08:44:12.861Z,0.37
2023-02-07T08:46:39.246Z,0.45
2023-02-07T08:49:05.691Z,0.48
2023-02-07T08:51:32.106Z,0.56
2023-02-07T08:53:58.541Z,0.59
2023-02-07T08:56:25.009Z,0.69
2023-02-07T08:58:51.435Z,0.76
2023-02-07T09:01:17.932Z,0.83
2023-02-07T09:03:44.411Z,0.75
2023-02-07T09:06:11.003Z,0.88
2023-02-07T09:08:37.463Z,0.89
2023-02-07T09:11:09.096Z,0.94
2023-02-07T09:13:35.832Z,1.01
2023-02-07T09:16:02.328Z,1.10
2023-02-07T09:18:30.029Z,1.08
2023-02-07T09:20:56.513Z,1.13
2023-02-07T09:23:23.520Z,1.21
2023-02-07T09:25:52.518Z,1.32
2023-02-07T09:28:20.267Z,1.45
2023-02-07T09:30:47.693Z,1.43
2023-02-07T09:33:15.515Z,1.50
2023-02-07T09:35:43.914Z,1.43
2023-02-07T09:38:13.889Z,1.46
2023-02-07T09:40:41.003Z,1.49
2023-02-07T09:43:25.635Z,1.58
2023-02-07T09:46:01.324Z,1.57
2023-02-07T09:48:37.489Z,1.67
2023-02-07T09:51:05.288Z,1.67
2023-02-07T09:53:42.459Z,1.74
2023-02-07T09:56:09.575Z,1.87
2023-02-07T09:58:43.587Z,1.93
2023-02-07T10:01:20.135Z,1.91
2023-02-07T10:03:55.272Z,2.03
2023-02-07T10:06:27.338Z,2.08
2023-02-07T10:08:59.532Z,2.08
2023-02-07T10:11:45.928Z,2.14
2023-02-07T10:14:24.558Z,2.25
2023-02-07T10:17:31.025Z,2.30
2023-02-07T10:20:00.991Z,2.25
2023-02-07T10:22:54.155Z,2.26
2023-02-07T10:25:44.587Z,2.37
2023-02-07T10:28:14.055Z,2.43
2023-02-07T10:30:42.911Z,2.45
2023-02-07T10:33:19.708Z,2.48
2023-02-07T10:35:47.303Z,2.57
2023-02-07T10:38:28.467Z,2.62
2023-02-07T10:41:00.342Z,2.66
2023-02-07T10:43:35.355Z,2.67
2023-02-07T10:46:14.111Z,2.81
2023-02-07T10:48:40.598Z,2.88
2023-02-07T10:51:34.586Z,2.93
2023-02-07T10:54:14.607Z,2.95
2023-02-07T10:56:43.016Z,2.91
2023-02-07T10:59:45.859Z,2.98
2023-02-07T11:02:37.506Z,3.01
2023-02-07T11:05:27.891Z,3.13
2023-02-07T11:08:19.965Z,3.16
2023-02-07T11:10:47.103Z,3.11
2023-02-07T11:13:16.511Z,3.21
2023-02-07T11:15:48.721Z,3.21
2023-02-07T11:18:53.847Z,3.30
2023-02-07T11:21:29.305Z,3.37
2023-02-07T11:24:09.147Z,3.34
2023-02-07T11:26:40.991Z,3.35
2023-02-07T11:29:11.946Z,3.41
2023-02-07T11:31:38.867Z,3.49
2023-02-07T11:34:23.305Z,3.45
2023-02-07T11:36:49.678Z,3.58
2023-02-07T11:39:19.180Z,3.64
2023-02-07T11:42:02.623Z,3.62
2023-02-07T11:47:03.633Z,3.79
2023-02-07T11:49:52.537Z,3.77
2023-02-07T11:52:19.461Z,3.79
2023-02-07T11:55:08.391Z,3.80
2023-02-07T11:57:34.967Z,3.65
2023-02-07T12:00:19.102Z,3.72
2023-02-07T12:02:51.730Z,3.85
2023-02-07T12:05:20.915Z,3.82
2023-02-07T12:07:53.091Z,3.86
2023-02-07T12:10:39.959Z,4.00
2023-02-07T12:13:27.328Z,4.04
2023-02-07T12:16:02.548Z,4.14
2023-02-07T12:18:44.186Z,4.05
2023-02-07T12:21:47.762Z,4.20
2023-02-07T12:24:20.936Z,4.33
2023-02-07T12:27:00.259Z,4.30
2023-02-07T12:29:42.469Z,4.28
2023-02-07T12:32:27.070Z,4.34
2023-02-07T12:35:11.345Z,4.36
2023-02-07T12:37:51.758Z,4.37
2023-02-07T12:40:43.112Z,4.38
2023-02-07T12:43:12.457Z,4.45
2023-02-07T12:46:02.947Z,4.53
2023-02-07T12:48:47.685Z,4.55
2023-02-07T12:51:21.804Z,4.55
2023-02-07T12:54:08.104Z,4.56
2023-02-07T12:56:56.968Z,4.56
2023-02-07T12:59:33.098Z,4.67
2023-02-07T13:02:20.125Z,4.75
2023-02-07T13:05:32.720Z,4.78
2023-02-07T13:08:02.168Z,4.81
2023-02-07T13:10:53.642Z,4.91
2023-02-07T13:13:36.438Z,4.94
2023-02-07T13:16:28.396Z,4.94
2023-02-07T13:18:54.744Z,4.96
2023-02-07T13:21:39.941Z,4.94
2023-02-07T13:24:07.536Z,4.97
2023-02-07T13:26:35.330Z,4.96
2023-02-07T13:29:11.434Z,4.93
2023-02-07T13:31:51.378Z,4.91
2023-02-07T13:34:41.028Z,5.05
2023-02-07T13:37:17.010Z,5.06
2023-02-07T13:39:57.591Z,5.11
2023-02-07T13:42:47.637Z,5.10
2023-02-07T13:45:20.335Z,5.16
2023-02-07T13:47:56.039Z,5.15
2023-02-07T13:50:38.700Z,5.13
2023-02-07T13:53:29.929Z,5.15
2023-02-07T13:56:03.309Z,5.12
2023-02-07T13:58:51.499Z,5.11
2023-02-07T14:01:23.652Z,5.18
2023-02-07T14:04:06.961Z,5.12
2023-02-07T14:06:38.091Z,5.13
2023-02-07T14:09:17.124Z,5.21
2023-02-07T14:11:45.183Z,5.10
2023-02-07T14:14:24.777Z,5.20
2023-02-07T14:17:01.148Z,5.11
2023-02-07T14:19:40.128Z,5.12
2023-02-07T14:22:24.787Z,5.08
2023-02-07T14:25:03.311Z,5.05
2023-02-07T14:27:39.159Z,5.01
2023-02-07T14:30:11.500Z,5.00
2023-02-07T14:32:39.888Z,4.97
2023-02-07T14:35:19.330Z,4.91
2023-02-07T14:37:56.392Z,4.85
2023-02-07T14:40:31.453Z,4.84
2023-02-07T14:43:08.648Z,4.81
2023-02-07T14:45:36.676Z,4.77
2023-02-07T14:48:05.328Z,4.70
2023-02-07T14:50:33.509Z,4.71
2023-02-07T14:53:05.947Z,4.73
2023-02-07T14:55:42.031Z,4.75
2023-02-07T14:58:13.795Z,4.72
2023-02-07T15:00:49.617Z,4.71
2023-02-07T15:03:18.681Z,4.65
2023-02-07T15:05:54.189Z,4.63
2023-02-07T15:08:23.457Z,4.57
2023-02-07T15:11:10.096Z,4.58
2023-02-07T15:13:43.470Z,4.54
2023-02-07T15:16:18.941Z,4.51
2023-02-07T15:18:52.801Z,4.52
2023-02-07T15:21:21.546Z,4.53
2023-02-07T15:24:13.084Z,4.42
2023-02-07T15:26:40.402Z,4.47
2023-02-07T15:29:17.966Z,4.39
2023-02-07T15:31:45.194Z,4.35
2023-02-07T15:34:31.592Z,4.31
2023-02-07T15:37:00.222Z,4.36
2023-02-07T15:39:29.261Z,4.32
2023-02-07T15:41:56.966Z,4.26
2023-02-07T15:44:28.294Z,4.22
2023-02-07T15:47:04.745Z,4.22
2023-02-07T15:49:41.368Z,4.14
2023-02-07T15:52:14.727Z,4.13
2023-02-07T15:54:48.789Z,4.16
2023-02-07T15:57:27.079Z,4.13
2023-02-07T15:59:55.551Z,4.07
2023-02-07T16:02:31.402Z,4.04
2023-02-07T16:04:59.317Z,4.04
2023-02-07T16:07:25.745Z,3.95
2023-02-07T16:09:55.031Z,3.99
2023-02-07T16:12:43.047Z,3.93
2023-02-07T16:15:26.554Z,3.87
2023-02-07T16:17:53.812Z,3.76
2023-02-07T16:20:20.429Z,3.74
2023-02-07T16:22:47.370Z,3.64
2023-02-07T16:25:20.213Z,3.66
2023-02-07T16:27:48.145Z,3.65
2023-02-07T16:30:17.658Z,3.67
2023-02-07T16:32:44.192Z,3.53
2023-02-07T16:35:25.614Z,3.55
2023-02-07T16:37:52.678Z,3.40
2023-02-07T16:40:20.014Z,3.37
2023-02-07T16:42:46.539Z,3.36
2023-02-07T16:45:27.497Z,3.40
2023-02-07T16:47:54.670Z,3.30
2023-02-07T16:50:23.316Z,3.31
2023-02-07T16:52:51.078Z,3.13
2023-02-07T16:55:19.101Z,3.12
2023-02-07T16:57:47.179Z,3.09
2023-02-07T17:00:21.087Z,2.97
2023-02-07T17:02:50.288Z,2.90
2023-02-07T17:05:17.968Z,2.81
2023-02-07T17:07:44.788Z,2.79
2023-02-07T17:10:28.065Z,2.77
2023-02-07T17:12:54.868Z,2.61
2023-02-07T17:15:21.509Z,2.75
2023-02-07T17:17:48.299Z,2.70
2023-02-07T17:20:25.174Z,2.62
2023-02-07T17:22:52.076Z,2.53
2023-02-07T17:25:20.304Z,2.54
2023-02-07T17:27:47.091Z,2.46
2023-02-07T17:30:25.322Z,2.33
2023-02-07T17:32:52.313Z,2.36
2023-02-07T17:35:20.648Z,2.28
2023-02-07T17:37:50.978Z,2.39
2023-02-07T17:40:25.517Z,2.42
2023-02-07T17:42:52.029Z,2.42
2023-02-07T17:45:18.536Z,2.32
2023-02-07T17:47:44.998Z,2.21
2023-02-07T17:50:23.515Z,2.24
2023-02-07T17:52:49.929Z,2.23
2023-02-07T17:55:17.065Z,2.16
2023-02-07T17:57:43.824Z,2.11
2023-02-07T18:00:17.529Z,2.02
2023-02-07T18:02:45.890Z,2.12
2023-02-07T18:05:14.457Z,2.18
2023-02-07T18:07:41.081Z,2.13
2023-02-07T18:10:09.655Z,2.13
2023-02-07T18:12:37.192Z,2.08
2023-02-07T18:15:05.010Z,2.14
2023-02-07T18:17:31.436Z,2.13
2023-02-07T18:19:57.849Z,2.11
2023-02-07T18:22:24.275Z,2.12
2023-02-07T18:24:50.683Z,2.06
2023-02-07T18:27:18.420Z,2.06
2023-02-07T18:29:46.060Z,2.03
2023-02-07T18:32:12.872Z,1.99
2023-02-07T18:34:40.239Z,1.96
2023-02-07T18:37:06.936Z,1.89
2023-02-07T18:39:33.355Z,1.90
2023-02-07T18:42:01.068Z,1.88
2023-02-07T18:44:27.658Z,1.86
2023-02-07T18:46:54.030Z,1.71
2023-02-07T18:49:20.407Z,1.71
2023-02-07T18:51:47.236Z,1.74
2023-02-07T18:54:13.666Z,1.72
2023-02-07T18:56:41.809Z,1.73
2023-02-07T18:59:09.317Z,1.67
2023-02-07T19:01:35.819Z,1.59
2023-02-07T19:04:02.461Z,1.62
2023-02-07T19:06:31.597Z,1.53
2023-02-07T19:08:58.682Z,1.55
2023-02-07T19:11:26.456Z,1.50
2023-02-07T19:13:52.942Z,1.35
2023-02-07T19:16:21.575Z,1.29
2023-02-07T19:18:48.459Z,1.36
2023-02-07T19:21:18.110Z,1.13
2023-02-07T19:23:44.545Z,1.13
2023-02-07T19:26:10.974Z,1.19
2023-02-07T19:28:37.955Z,1.06
2023-02-07T19:31:09.630Z,1.12
2023-02-07T19:33:36.732Z,0.87
2023-02-07T19:36:06.214Z,0.96
2023-02-07T19:38:32.722Z,0.98
2023-02-07T19:40:59.298Z,0.94
2023-02-07T19:43:25.765Z,0.90
2023-02-07T19:45:53.579Z,0.87
2023-02-07T19:48:21.442Z,0.71
2023-02-07T19:50:48.054Z,0.66
2023-02-07T19:53:16.067Z,0.71
2023-02-07T19:55:42.508Z,0.65
2023-02-07T19:58:08.979Z,0.60
2023-02-07T20:00:35.654Z,0.56
2023-02-07T20:03:02.047Z,0.47
2023-02-07T20:05:28.739Z,0.55
2023-02-07T20:07:56.506Z,0.42
2023-02-07T20:10:22.919Z,0.41
2023-02-07T20:12:49.410Z,0.37
2023-02-07T20:15:15.817Z,0.36
2023-02-07T20:17:42.227Z,0.42
2023-02-07T20:20:09.025Z,0.38
2023-02-07T20:22:35.494Z,0.34
2023-02-07T20:25:02.022Z,0.31
2023-02-07T20:27:28.428Z,0.30
2023-02-07T20:29:54.819Z,0.22
2023-02-07T20:32:21.219Z,0.19
2023-02-07T20:34:47.721Z,0.17
2023-02-07T20:37:14.153Z,0.14
2023-02-07T20:39:40.563Z,-0.01
2023-02-07T20:42:07.240Z,0.12
2023-02-07T20:44:33.659Z,-0.01
2023-02-07T20:47:00.580Z,0.05
2023-02-07T20:49:29.556Z,0.03
2023-02-07T20:51:57.105Z,0.00
2023-02-07T20:54:26.789Z,-0.03
2023-02-07T20:56:54.307Z,-0.08
2023-02-07T20:59:26.727Z,-0.08
2023-02-07T21:01:53.828Z,-0.09
2023-02-07T21:04:20.762Z,-0.05
2023-02-07T21:06:47.268Z,-0.11
2023-02-07T21:09:14.570Z,-0.16
2023-02-07T21:11:46.781Z,-0.18
2023-02-07T21:14:28.056Z,-0.13
2023-02-07T21:16:55.890Z,-0.17
2023-02-07T21:19:23.264Z,-0.16
2023-02-07T21:21:50.913Z,-0.26
2023-02-07T21:24:18.453Z,-0.27
2023-02-07T21:26:48.438Z,-0.24
2023-02-07T21:29:15.499Z,-0.17
2023-02-07T21:31:42.024Z,-0.14
2023-02-07T21:34:09.611Z,-0.18
2023-02-07T21:36:39.920Z,-0.14
2023-02-07T21:39:10.243Z,-0.09
2023-02-07T21:41:38.514Z,-0.10
2023-02-07T21:44:05.229Z,-0.17
2023-02-07T21:46:35.240Z,-0.21
2023-02-07T21:49:04.684Z,-0.30
2023-02-07T21:51:32.725Z,-0.27
2023-02-07T21:54:00.223Z,-0.27
2023-02-07T21:56:28.924Z,-0.28
2023-02-07T21:59:03.992Z,-0.34
2023-02-07T22:01:32.620Z,-0.26
2023-02-07T22:04:01.318Z,-0.23
2023-02-07T22:06:28.877Z,-0.33
2023-02-07T22:08:57.862Z,-0.35
2023-02-07T22:11:26.360Z,-0.27
2023-02-07T22:13:53.167Z,-0.21
2023-02-07T22:16:21.891Z,-0.28
2023-02-07T22:18:48.770Z,-0.27
2023-02-07T22:21:26.797Z,-0.34
2023-02-07T22:23:53.915Z,-0.33
2023-02-07T22:26:20.546Z,-0.38
2023-02-07T22:28:47.513Z,-0.43
2023-02-07T22:31:19.867Z,-0.32
2023-02-07T22:33:46.961Z,-0.33
2023-02-07T22:36:22.398Z,-0.28
2023-02-07T22:38:48.962Z,-0.33
2023-02-07T22:41:16.124Z,-0.39
2023-02-07T22:43:42.587Z,-0.34
2023-02-07T22:46:13.277Z,-0.37
2023-02-07T22:48:40.188Z,-0.37
2023-02-07T22:51:15.287Z,-0.33
2023-02-07T22:53:41.905Z,-0.41
2023-02-07T22:56:08.942Z,-0.49
2023-02-07T22:58:36.340Z,-0.55
2023-02-07T23:01:03.851Z,-0.51
2023-02-07T23:03:30.336Z,-0.53
2023-02-07T23:05:56.899Z,-0.45
2023-02-07T23:08:23.315Z,-0.51
2023-02-07T23:10:49.760Z,-0.44
2023-02-07T23:13:16.833Z,-0.54
2023-02-07T23:15:47.372Z,-0.55
2023-02-07T23:18:15.569Z,-0.55
2023-02-07T23:20:44.220Z,-0.64
2023-02-07T23:23:12.034Z,-0.67
2023-02-07T23:25:45.166Z,-0.58
2023-02-07T23:28:12.979Z,-0.61
2023-02-07T23:30:40.369Z,-0.64
2023-02-07T23:33:08.368Z,-0.66
2023-02-07T23:35:35.279Z,-0.65
2023-02-07T23:38:02.230Z,-0.63
2023-02-07T23:40:29.060Z,-0.67
2023-02-07T23:42:56.047Z,-0.70
2023-02-07T23:45:22.496Z,-0.69
2023-02-07T23:47:49.037Z,-0.71
2023-02-07T23:50:15.506Z,-0.76
2023-02-07T23:52:41.938Z,-0.77
2023-02-07T23:55:08.399Z,-0.81
2023-02-07T23:57:34.824Z,-0.95
